sensor_id;sensor_type;location;lat;lon;timestamp;pressure;altitude;pressure_sealevel;temperature;humidity
26865;BME280;40618;51.166;10.322;2022-09-12T00:02:25;97679.88;;;12.34;69.78
26865;BME280;40618;51.166;10.322;2022-09-12T00:04:50;97678.13;;;12.35;70.08
26865;BME280;40618;51.166;10.322;2022-09-12T00:07:16;97673.78;;;12.35;69.71
26865;BME280;40618;51.166;10.322;2022-09-12T00:09:42;97673.00;;;12.33;69.53
26865;BME280;40618;51.166;10.322;2022-09-12T00:12:07;97671.41;;;12.29;69.64
26865;BME280;40618;51.166;10.322;2022-09-12T00:14:34;97667.16;;;12.27;69.58
26865;BME280;40618;51.166;10.322;2022-09-12T00:17:00;97657.78;;;12.23;69.73
26865;BME280;40618;51.166;10.322;2022-09-12T00:19:27;97654.34;;;12.22;69.73
26865;BME280;40618;51.166;10.322;2022-09-12T00:21:53;97669.00;;;12.23;69.74
26865;BME280;40618;51.166;10.322;2022-09-12T00:24:20;97661.19;;;12.25;70.13
26865;BME280;40618;51.166;10.322;2022-09-12T00:26:46;97652.47;;;12.26;69.81
26865;BME280;40618;51.166;10.322;2022-09-12T00:29:18;97668.00;;;12.27;69.59
26865;BME280;40618;51.166;10.322;2022-09-12T00:31:46;97665.50;;;12.24;69.62
26865;BME280;40618;51.166;10.322;2022-09-12T00:34:12;97661.38;;;12.18;69.59
26865;BME280;40618;51.166;10.322;2022-09-12T00:36:38;97659.94;;;12.10;69.92
26865;BME280;40618;51.166;10.322;2022-09-12T00:39:05;97657.28;;;12.11;70.25
26865;BME280;40618;51.166;10.322;2022-09-12T00:41:34;97661.56;;;12.12;69.98
26865;BME280;40618;51.166;10.322;2022-09-12T00:49:23;97648.59;;;12.12;69.99
26865;BME280;40618;51.166;10.322;2022-09-12T00:52:15;97657.47;;;12.05;70.11
26865;BME280;40618;51.166;10.322;2022-09-12T00:57:25;97642.84;;;12.02;69.67
26865;BME280;40618;51.166;10.322;2022-09-12T01:00:00;97646.25;;;12.05;70.01
26865;BME280;40618;51.166;10.322;2022-09-12T01:02:35;97637.53;;;12.07;69.94
26865;BME280;40618;51.166;10.322;2022-09-12T01:05:01;97635.78;;;12.08;70.06
26865;BME280;40618;51.166;10.322;2022-09-12T01:07:27;97639.41;;;12.02;69.99
26865;BME280;40618;51.166;10.322;2022-09-12T01:09:53;97639.59;;;11.97;69.80
26865;BME280;40618;51.166;10.322;2022-09-12T01:12:20;97637.88;;;11.96;70.18
26865;BME280;40618;51.166;10.322;2022-09-12T01:14:45;97632.75;;;11.95;70.35
26865;BME280;40618;51.166;10.322;2022-09-12T01:17:14;97630.94;;;11.97;70.14
26865;BME280;40618;51.166;10.322;2022-09-12T01:20:04;97628.38;;;11.95;70.08
26865;BME280;40618;51.166;10.322;2022-09-12T01:31:53;97631.19;;;11.88;70.01
26865;BME280;40618;51.166;10.322;2022-09-12T01:34:50;97627.00;;;11.83;70.04
26865;BME280;40618;51.166;10.322;2022-09-12T01:37:38;97626.28;;;11.80;69.94
26865;BME280;40618;51.166;10.322;2022-09-12T01:40:25;97636.00;;;11.73;69.97
26865;BME280;40618;51.166;10.322;2022-09-12T01:43:22;97624.13;;;11.66;70.12
26865;BME280;40618;51.166;10.322;2022-09-12T01:49:26;97625.72;;;11.70;70.19
26865;BME280;40618;51.166;10.322;2022-09-12T01:55:10;97621.44;;;11.69;70.23
26865;BME280;40618;51.166;10.322;2022-09-12T02:00:21;97619.81;;;11.65;69.83
26865;BME280;40618;51.166;10.322;2022-09-12T02:02:57;97622.69;;;11.56;70.07
26865;BME280;40618;51.166;10.322;2022-09-12T02:05:32;97614.16;;;11.52;69.87
26865;BME280;40618;51.166;10.322;2022-09-12T02:08:08;97615.03;;;11.52;70.37
26865;BME280;40618;51.166;10.322;2022-09-12T02:10:49;97611.66;;;11.49;69.97
26865;BME280;40618;51.166;10.322;2022-09-12T02:13:42;97608.38;;;11.44;70.15
26865;BME280;40618;51.166;10.322;2022-09-12T02:19:19;97604.16;;;11.40;70.18
26865;BME280;40618;51.166;10.322;2022-09-12T02:21:57;97604.16;;;11.40;70.13
26865;BME280;40618;51.166;10.322;2022-09-12T02:24:28;97598.25;;;11.36;70.09
26865;BME280;40618;51.166;10.322;2022-09-12T02:27:13;97606.75;;;11.40;70.23
26865;BME280;40618;51.166;10.322;2022-09-12T02:29:43;97607.53;;;11.43;70.14
26865;BME280;40618;51.166;10.322;2022-09-12T02:33:01;97607.41;;;11.46;70.64
26865;BME280;40618;51.166;10.322;2022-09-12T02:35:42;97610.84;;;11.48;70.80
26865;BME280;40618;51.166;10.322;2022-09-12T02:40:42;97602.19;;;11.48;70.78
26865;BME280;40618;51.166;10.322;2022-09-12T02:43:11;97594.41;;;11.48;70.55
26865;BME280;40618;51.166;10.322;2022-09-12T02:45:36;97602.25;;;11.46;70.72
26865;BME280;40618;51.166;10.322;2022-09-12T02:48:26;97600.69;;;11.41;70.40
26865;BME280;40618;51.166;10.322;2022-09-12T02:50:56;97598.09;;;11.41;70.80
26865;BME280;40618;51.166;10.322;2022-09-12T02:53:22;97589.66;;;11.34;70.66
26865;BME280;40618;51.166;10.322;2022-09-12T02:55:50;97595.94;;;11.27;70.21
26865;BME280;40618;51.166;10.322;2022-09-12T02:58:20;97598.63;;;11.24;70.19
26865;BME280;40618;51.166;10.322;2022-09-12T03:01:19;97595.22;;;11.22;70.74
26865;BME280;40618;51.166;10.322;2022-09-12T03:16:02;97594.34;;;11.23;70.87
26865;BME280;40618;51.166;10.322;2022-09-12T03:24:59;97591.28;;;11.08;70.15
26865;BME280;40618;51.166;10.322;2022-09-12T03:27:51;97586.25;;;11.04;70.53
26865;BME280;40618;51.166;10.322;2022-09-12T03:30:43;97590.63;;;11.01;70.67
26865;BME280;40618;51.166;10.322;2022-09-12T03:33:16;97593.16;;;11.05;70.97
26865;BME280;40618;51.166;10.322;2022-09-12T03:35:46;97594.81;;;11.06;70.62
26865;BME280;40618;51.166;10.322;2022-09-12T03:38:12;97597.50;;;11.03;70.71
26865;BME280;40618;51.166;10.322;2022-09-12T03:40:38;97585.53;;;10.98;70.44
26865;BME280;40618;51.166;10.322;2022-09-12T03:43:06;97590.88;;;10.94;70.85
26865;BME280;40618;51.166;10.322;2022-09-12T03:45:33;97597.00;;;10.91;70.78
26865;BME280;40618;51.166;10.322;2022-09-12T03:47:59;97593.56;;;10.89;70.92
26865;BME280;40618;51.166;10.322;2022-09-12T03:50:25;97588.44;;;10.88;70.61
26865;BME280;40618;51.166;10.322;2022-09-12T03:52:51;97593.63;;;10.88;70.49
26865;BME280;40618;51.166;10.322;2022-09-12T03:55:16;97585.13;;;10.84;70.41
26865;BME280;40618;51.166;10.322;2022-09-12T03:57:42;97587.72;;;10.84;70.57
26865;BME280;40618;51.166;10.322;2022-09-12T04:00:09;97588.53;;;10.84;70.90
26865;BME280;40618;51.166;10.322;2022-09-12T04:02:36;97585.94;;;10.84;70.23
26865;BME280;40618;51.166;10.322;2022-09-12T04:05:02;97574.72;;;10.86;70.79
26865;BME280;40618;51.166;10.322;2022-09-12T04:07:28;97583.25;;;10.88;70.47
26865;BME280;40618;51.166;10.322;2022-09-12T04:09:54;97586.69;;;10.90;70.76
26865;BME280;40618;51.166;10.322;2022-09-12T04:12:20;97592.75;;;10.89;70.59
26865;BME280;40618;51.166;10.322;2022-09-12T04:14:46;97583.25;;;10.88;70.74
26865;BME280;40618;51.166;10.322;2022-09-12T04:17:13;97590.31;;;10.82;70.72
26865;BME280;40618;51.166;10.322;2022-09-12T04:19:39;97593.88;;;10.80;70.25
26865;BME280;40618;51.166;10.322;2022-09-12T04:22:04;97580.09;;;10.78;70.97
26865;BME280;40618;51.166;10.322;2022-09-12T04:24:31;97592.25;;;10.76;71.04
26865;BME280;40618;51.166;10.322;2022-09-12T04:26:57;97591.50;;;10.72;70.17
26865;BME280;40618;51.166;10.322;2022-09-12T04:29:23;97594.06;;;10.72;71.00
26865;BME280;40618;51.166;10.322;2022-09-12T04:31:48;97593.25;;;10.72;70.72
26865;BME280;40618;51.166;10.322;2022-09-12T04:34:14;97596.75;;;10.69;71.04
26865;BME280;40618;51.166;10.322;2022-09-12T04:36:40;97593.34;;;10.67;70.63
26865;BME280;40618;51.166;10.322;2022-09-12T04:39:05;97595.19;;;10.63;71.02
26865;BME280;40618;51.166;10.322;2022-09-12T04:41:36;97587.50;;;10.60;70.87
26865;BME280;40618;51.166;10.322;2022-09-12T04:44:11;97597.06;;;10.58;71.06
26865;BME280;40618;51.166;10.322;2022-09-12T04:46:41;97586.69;;;10.58;70.47
26865;BME280;40618;51.166;10.322;2022-09-12T04:49:09;97585.03;;;10.56;70.98
26865;BME280;40618;51.166;10.322;2022-09-12T04:51:37;97591.09;;;10.55;70.45
26865;BME280;40618;51.166;10.322;2022-09-12T04:54:10;97596.28;;;10.55;70.82
26865;BME280;40618;51.166;10.322;2022-09-12T04:56:43;97598.78;;;10.58;70.64
26865;BME280;40618;51.166;10.322;2022-09-12T04:59:12;97595.31;;;10.59;70.87
26865;BME280;40618;51.166;10.322;2022-09-12T05:01:39;97596.97;;;10.61;71.28
26865;BME280;40618;51.166;10.322;2022-09-12T05:04:06;97601.22;;;10.64;70.67
26865;BME280;40618;51.166;10.322;2022-09-12T05:06:35;97596.13;;;10.61;70.67
26865;BME280;40618;51.166;10.322;2022-09-12T05:09:04;97599.59;;;10.60;70.49
26865;BME280;40618;51.166;10.322;2022-09-12T05:11:33;97597.84;;;10.60;70.26
26865;BME280;40618;51.166;10.322;2022-09-12T05:14:01;97605.66;;;10.59;70.28
26865;BME280;40618;51.166;10.322;2022-09-12T05:16:28;97605.75;;;10.56;70.61
26865;BME280;40618;51.166;10.322;2022-09-12T05:18:55;97594.59;;;10.54;71.03
26865;BME280;40618;51.166;10.322;2022-09-12T05:21:23;97597.16;;;10.54;70.71
26865;BME280;40618;51.166;10.322;2022-09-12T05:23:57;97599.81;;;10.52;71.28
26865;BME280;40618;51.166;10.322;2022-09-12T05:26:26;97599.75;;;10.54;71.02
26865;BME280;40618;51.166;10.322;2022-09-12T05:28:52;97600.63;;;10.54;71.22
26865;BME280;40618;51.166;10.322;2022-09-12T05:31:24;97605.81;;;10.54;71.16
26865;BME280;40618;51.166;10.322;2022-09-12T05:33:53;97607.47;;;10.57;70.50
26865;BME280;40618;51.166;10.322;2022-09-12T05:36:25;97606.59;;;10.56;70.93
26865;BME280;40618;51.166;10.322;2022-09-12T05:38:56;97597.81;;;10.62;70.80
26865;BME280;40618;51.166;10.322;2022-09-12T05:41:26;97602.00;;;10.66;71.01
26865;BME280;40618;51.166;10.322;2022-09-12T05:43:59;97605.47;;;10.66;70.92
26865;BME280;40618;51.166;10.322;2022-09-12T05:46:27;97603.72;;;10.67;71.13
26865;BME280;40618;51.166;10.322;2022-09-12T05:48:55;97601.94;;;10.69;70.69
26865;BME280;40618;51.166;10.322;2022-09-12T05:51:27;97604.44;;;10.72;70.84
26865;BME280;40618;51.166;10.322;2022-09-12T05:53:58;97612.06;;;10.77;71.02
26865;BME280;40618;51.166;10.322;2022-09-12T05:56:27;97607.56;;;10.83;70.83
26865;BME280;40618;51.166;10.322;2022-09-12T05:59:03;97610.81;;;10.90;70.85
26865;BME280;40618;51.166;10.322;2022-09-12T06:01:34;97617.66;;;10.93;70.99
26865;BME280;40618;51.166;10.322;2022-09-12T06:04:03;97628.03;;;10.93;71.05
26865;BME280;40618;51.166;10.322;2022-09-12T06:06:31;97623.66;;;10.95;71.41
26865;BME280;40618;51.166;10.322;2022-09-12T06:09:02;97625.34;;;10.96;71.43
26865;BME280;40618;51.166;10.322;2022-09-12T06:11:31;97625.34;;;10.96;71.28
26865;BME280;40618;51.166;10.322;2022-09-12T06:13:59;97621.88;;;10.97;71.46
26865;BME280;40618;51.166;10.322;2022-09-12T06:16:30;97621.91;;;10.95;71.75
26865;BME280;40618;51.166;10.322;2022-09-12T06:19:00;97615.03;;;10.94;71.61
26865;BME280;40618;51.166;10.322;2022-09-12T06:21:29;97611.50;;;10.97;71.80
26865;BME280;40618;51.166;10.322;2022-09-12T06:23:56;97611.41;;;11.00;71.95
26865;BME280;40618;51.166;10.322;2022-09-12T06:26:26;97607.88;;;11.03;72.11
26865;BME280;40618;51.166;10.322;2022-09-12T06:28:55;97603.59;;;11.01;71.79
26865;BME280;40618;51.166;10.322;2022-09-12T06:31:27;97607.84;;;11.04;71.98
26865;BME280;40618;51.166;10.322;2022-09-12T06:34:06;97609.63;;;11.02;71.47
26865;BME280;40618;51.166;10.322;2022-09-12T06:36:39;97610.53;;;11.01;71.75
26865;BME280;40618;51.166;10.322;2022-09-12T06:39:20;97620.03;;;11.00;71.69
26865;BME280;40618;51.166;10.322;2022-09-12T06:41:48;97616.63;;;10.98;72.44
26865;BME280;40618;51.166;10.322;2022-09-12T06:44:18;97620.00;;;11.02;72.27
26865;BME280;40618;51.166;10.322;2022-09-12T06:46:45;97616.81;;;10.92;72.30
26865;BME280;40618;51.166;10.322;2022-09-12T06:49:11;97617.56;;;10.96;72.22
26865;BME280;40618;51.166;10.322;2022-09-12T06:51:38;97622.69;;;10.99;72.18
26865;BME280;40618;51.166;10.322;2022-09-12T06:54:06;97613.09;;;11.01;72.57
26865;BME280;40618;51.166;10.322;2022-09-12T06:56:32;97616.53;;;11.03;72.47
26865;BME280;40618;51.166;10.322;2022-09-12T06:58:58;97616.47;;;11.05;72.61
26865;BME280;40618;51.166;10.322;2022-09-12T07:01:33;97612.94;;;11.07;72.59
26865;BME280;40618;51.166;10.322;2022-09-12T07:04:00;97615.44;;;11.10;72.41
26865;BME280;40618;51.166;10.322;2022-09-12T07:06:36;97610.25;;;11.10;72.21
26865;BME280;40618;51.166;10.322;2022-09-12T07:09:07;97618.81;;;11.12;72.91
26865;BME280;40618;51.166;10.322;2022-09-12T07:11:36;97617.88;;;11.15;72.60
26865;BME280;40618;51.166;10.322;2022-09-12T07:14:05;97617.72;;;11.21;72.80
26865;BME280;40618;51.166;10.322;2022-09-12T07:16:33;97622.56;;;11.32;73.25
26865;BME280;40618;51.166;10.322;2022-09-12T07:19:01;97618.66;;;11.47;72.92
26865;BME280;40618;51.166;10.322;2022-09-12T07:21:28;97618.13;;;11.64;73.68
26865;BME280;40618;51.166;10.322;2022-09-12T07:23:55;97617.56;;;11.81;73.40
26865;BME280;40618;51.166;10.322;2022-09-12T07:26:23;97620.63;;;11.94;73.79
26865;BME280;40618;51.166;10.322;2022-09-12T07:28:52;97614.13;;;12.09;73.42
26865;BME280;40618;51.166;10.322;2022-09-12T07:31:22;97613.59;;;12.24;73.58
26865;BME280;40618;51.166;10.322;2022-09-12T07:33:49;97611.31;;;12.40;73.50
26865;BME280;40618;51.166;10.322;2022-09-12T07:36:18;97606.44;;;12.56;73.48
26865;BME280;40618;51.166;10.322;2022-09-12T07:38:45;97608.41;;;12.73;73.38
26865;BME280;40618;51.166;10.322;2022-09-12T07:43:50;97611.56;;;13.05;73.73
26865;BME280;40618;51.166;10.322;2022-09-12T07:46:17;97602.47;;;13.17;73.53
26865;BME280;40618;51.166;10.322;2022-09-12T07:48:43;97602.00;;;13.29;73.60
26865;BME280;40618;51.166;10.322;2022-09-12T07:51:10;97604.75;;;13.48;73.75
26865;BME280;40618;51.166;10.322;2022-09-12T07:53:38;97605.16;;;13.60;73.43
26865;BME280;40618;51.166;10.322;2022-09-12T07:56:07;97592.47;;;13.74;73.46
26865;BME280;40618;51.166;10.322;2022-09-12T07:58:35;97593.66;;;13.87;73.53
26865;BME280;40618;51.166;10.322;2022-09-12T08:03:35;97602.53;;;14.04;73.53
26865;BME280;40618;51.166;10.322;2022-09-12T08:06:06;97597.03;;;14.10;73.50
26865;BME280;40618;51.166;10.322;2022-09-12T08:08:36;97596.66;;;14.19;73.50
26865;BME280;40618;51.166;10.322;2022-09-12T08:11:05;97601.47;;;14.29;73.37
26865;BME280;40618;51.166;10.322;2022-09-12T08:13:36;97602.66;;;14.42;73.13
26865;BME280;40618;51.166;10.322;2022-09-12T08:16:05;97607.41;;;14.53;73.29
26865;BME280;40618;51.166;10.322;2022-09-12T08:18:34;97605.34;;;14.60;72.92
26865;BME280;40618;51.166;10.322;2022-09-12T08:21:05;97613.09;;;14.63;72.90
26865;BME280;40618;51.166;10.322;2022-09-12T08:23:36;97606.47;;;14.75;72.90
26865;BME280;40618;51.166;10.322;2022-09-12T08:26:03;97610.38;;;14.85;72.88
26865;BME280;40618;51.166;10.322;2022-09-12T08:28:31;97612.56;;;14.94;72.65
26865;BME280;40618;51.166;10.322;2022-09-12T08:31:03;97610.44;;;15.02;72.88
26865;BME280;40618;51.166;10.322;2022-09-12T08:33:34;97608.03;;;15.17;72.86
26865;BME280;40618;51.166;10.322;2022-09-12T08:36:16;97612.75;;;15.28;72.56
26865;BME280;40618;51.166;10.322;2022-09-12T08:38:47;97607.19;;;15.35;72.85
26865;BME280;40618;51.166;10.322;2022-09-12T08:44:02;97608.41;;;15.65;72.42
26865;BME280;40618;51.166;10.322;2022-09-12T08:55:42;97605.25;;;16.12;72.61
26865;BME280;40618;51.166;10.322;2022-09-12T09:20:55;97582.13;;;17.85;70.39
26865;BME280;40618;51.166;10.322;2022-09-12T09:23:29;97580.47;;;17.68;69.83
26865;BME280;40618;51.166;10.322;2022-09-12T09:26:22;97581.84;;;17.43;69.96
26865;BME280;40618;51.166;10.322;2022-09-12T09:28:58;97585.91;;;17.49;70.31
26865;BME280;40618;51.166;10.322;2022-09-12T09:31:33;97575.41;;;17.65;69.92
26865;BME280;40618;51.166;10.322;2022-09-12T09:34:19;97578.59;;;17.70;69.60
26865;BME280;40618;51.166;10.322;2022-09-12T09:36:55;97579.78;;;17.64;69.24
26865;BME280;40618;51.166;10.322;2022-09-12T09:42:52;97577.69;;;18.01;69.48
26865;BME280;40618;51.166;10.322;2022-09-12T09:45:25;97575.06;;;18.32;69.33
26865;BME280;40618;51.166;10.322;2022-09-12T09:51:03;97572.94;;;18.67;68.59
26865;BME280;40618;51.166;10.322;2022-09-12T09:56:36;97567.97;;;18.63;68.17
26865;BME280;40618;51.166;10.322;2022-09-12T09:59:31;97564.59;;;18.75;68.02
26865;BME280;40618;51.166;10.322;2022-09-12T10:02:01;97552.50;;;18.87;67.74
26865;BME280;40618;51.166;10.322;2022-09-12T10:04:39;97552.50;;;19.01;67.46
26865;BME280;40618;51.166;10.322;2022-09-12T10:07:18;97552.47;;;19.16;67.66
26865;BME280;40618;51.166;10.322;2022-09-12T10:10:15;97546.84;;;19.49;67.30
26865;BME280;40618;51.166;10.322;2022-09-12T10:12:42;97552.13;;;19.62;66.63
26865;BME280;40618;51.166;10.322;2022-09-12T10:15:23;97544.56;;;19.57;66.55
26865;BME280;40618;51.166;10.322;2022-09-12T10:17:53;97550.88;;;19.55;66.07
26865;BME280;40618;51.166;10.322;2022-09-12T10:20:34;97547.38;;;19.27;65.97
26865;BME280;40618;51.166;10.322;2022-09-12T10:26:00;97547.91;;;19.05;65.55
26865;BME280;40618;51.166;10.322;2022-09-12T10:28:36;97543.22;;;18.81;65.20
26865;BME280;40618;51.166;10.322;2022-09-12T10:31:13;97536.28;;;18.80;65.84
26865;BME280;40618;51.166;10.322;2022-09-12T10:33:43;97537.88;;;18.83;65.41
26865;BME280;40618;51.166;10.322;2022-09-12T10:36:17;97534.03;;;18.74;65.66
26865;BME280;40618;51.166;10.322;2022-09-12T10:38:52;97539.84;;;18.79;65.15
26865;BME280;40618;51.166;10.322;2022-09-12T10:41:20;97534.81;;;18.76;65.54
26865;BME280;40618;51.166;10.322;2022-09-12T10:43:46;97536.28;;;18.80;65.13
26865;BME280;40618;51.166;10.322;2022-09-12T10:48:42;97529.00;;;18.71;65.00
26865;BME280;40618;51.166;10.322;2022-09-12T10:51:29;97526.38;;;18.85;64.72
26865;BME280;40618;51.166;10.322;2022-09-12T10:53:56;97527.59;;;18.80;64.62
26865;BME280;40618;51.166;10.322;2022-09-12T10:56:33;97525.25;;;18.75;64.34
26865;BME280;40618;51.166;10.322;2022-09-12T10:59:24;97522.66;;;18.60;63.91
26865;BME280;40618;51.166;10.322;2022-09-12T11:02:40;97523.56;;;18.45;64.01
26865;BME280;40618;51.166;10.322;2022-09-12T11:19:54;97510.63;;;18.85;63.32
26865;BME280;40618;51.166;10.322;2022-09-12T11:22:39;97510.72;;;18.84;63.11
26865;BME280;40618;51.166;10.322;2022-09-12T11:25:59;97515.97;;;18.84;62.52
26865;BME280;40618;51.166;10.322;2022-09-12T11:31:41;97510.44;;;18.88;61.70
26865;BME280;40618;51.166;10.322;2022-09-12T11:34:54;97506.03;;;18.89;61.76
26865;BME280;40618;51.166;10.322;2022-09-12T11:43:23;97495.06;;;18.97;61.58
26865;BME280;40618;51.166;10.322;2022-09-12T11:45:54;97501.59;;;19.04;61.46
26865;BME280;40618;51.166;10.322;2022-09-12T11:48:37;97494.53;;;19.19;61.21
26865;BME280;40618;51.166;10.322;2022-09-12T11:51:24;97499.53;;;19.09;60.82
26865;BME280;40618;51.166;10.322;2022-09-12T11:54:03;97499.19;;;19.01;60.59
26865;BME280;40618;51.166;10.322;2022-09-12T11:56:42;97493.38;;;18.96;60.64
26865;BME280;40618;51.166;10.322;2022-09-12T11:59:31;97487.75;;;19.02;60.70
26865;BME280;40618;51.166;10.322;2022-09-12T12:02:11;97485.16;;;19.15;60.56
26865;BME280;40618;51.166;10.322;2022-09-12T12:04:55;97489.78;;;19.38;60.42
26865;BME280;40618;51.166;10.322;2022-09-12T12:07:55;97486.41;;;19.36;59.95
26865;BME280;40618;51.166;10.322;2022-09-12T12:10:28;97487.56;;;19.45;60.13
26865;BME280;40618;51.166;10.322;2022-09-12T12:12:58;97476.69;;;19.51;59.66
26865;BME280;40618;51.166;10.322;2022-09-12T12:15:27;97472.69;;;19.58;59.53
26865;BME280;40618;51.166;10.322;2022-09-12T12:18:17;97482.16;;;19.61;59.58
26865;BME280;40618;51.166;10.322;2022-09-12T12:20:46;97481.94;;;19.64;59.19
26865;BME280;40618;51.166;10.322;2022-09-12T12:23:30;97474.38;;;19.59;59.11
26865;BME280;40618;51.166;10.322;2022-09-12T12:26:00;97474.59;;;19.56;59.24
26865;BME280;40618;51.166;10.322;2022-09-12T12:31:15;97459.44;;;19.60;58.54
26865;BME280;40618;51.166;10.322;2022-09-12T12:36:32;97463.22;;;19.56;58.40
26865;BME280;40618;51.166;10.322;2022-09-12T12:42:01;97454.13;;;19.61;58.00
26865;BME280;40618;51.166;10.322;2022-09-12T12:47:27;97445.59;;;19.71;57.54
26865;BME280;40618;51.166;10.322;2022-09-12T12:50:02;97450.47;;;19.77;57.32
26865;BME280;40618;51.166;10.322;2022-09-12T12:52:44;97446.19;;;19.89;57.06
26865;BME280;40618;51.166;10.322;2022-09-12T12:55:18;97444.94;;;19.94;57.05
26865;BME280;40618;51.166;10.322;2022-09-12T12:57:51;97445.75;;;19.95;56.59
26865;BME280;40618;51.166;10.322;2022-09-12T13:02:51;97433.13;;;20.13;56.11
26865;BME280;40618;51.166;10.322;2022-09-12T13:05:28;97436.94;;;20.22;56.01
26865;BME280;40618;51.166;10.322;2022-09-12T13:08:27;97439.44;;;20.23;55.69
26865;BME280;40618;51.166;10.322;2022-09-12T13:11:03;97438.28;;;20.27;55.61
26865;BME280;40618;51.166;10.322;2022-09-12T13:13:52;97432.91;;;20.29;55.39
26865;BME280;40618;51.166;10.322;2022-09-12T13:19:19;97425.97;;;20.28;55.10
26865;BME280;40618;51.166;10.322;2022-09-12T13:22:16;97426.72;;;20.17;55.01
26865;BME280;40618;51.166;10.322;2022-09-12T13:24:48;97430.31;;;20.16;55.22
26865;BME280;40618;51.166;10.322;2022-09-12T13:27:25;97421.28;;;20.20;54.91
26865;BME280;40618;51.166;10.322;2022-09-12T13:30:10;97414.75;;;20.26;54.94
26865;BME280;40618;51.166;10.322;2022-09-12T13:32:38;97416.84;;;20.21;54.84
26865;BME280;40618;51.166;10.322;2022-09-12T13:43:38;97413.28;;;20.22;55.01
26865;BME280;40618;51.166;10.322;2022-09-12T13:46:07;97414.00;;;20.24;54.96
26865;BME280;40618;51.166;10.322;2022-09-12T13:48:36;97411.16;;;20.14;54.75
26865;BME280;40618;51.166;10.322;2022-09-12T13:51:04;97411.91;;;20.03;54.96
26865;BME280;40618;51.166;10.322;2022-09-12T13:53:45;97412.97;;;20.01;55.02
26865;BME280;40618;51.166;10.322;2022-09-12T13:56:19;97406.31;;;20.08;54.68
26865;BME280;40618;51.166;10.322;2022-09-12T13:58:55;97406.97;;;20.11;54.77
26865;BME280;40618;51.166;10.322;2022-09-12T14:01:37;97400.88;;;20.11;54.58
26865;BME280;40618;51.166;10.322;2022-09-12T14:04:23;97389.63;;;20.09;54.63
26865;BME280;40618;51.166;10.322;2022-09-12T14:07:14;97385.97;;;19.99;54.47
26865;BME280;40618;51.166;10.322;2022-09-12T14:09:45;97387.22;;;20.06;54.60
26865;BME280;40618;51.166;10.322;2022-09-12T14:12:27;97393.81;;;20.11;54.44
26865;BME280;40618;51.166;10.322;2022-09-12T14:14:56;97388.44;;;20.13;54.56
26865;BME280;40618;51.166;10.322;2022-09-12T14:17:34;97388.75;;;20.21;54.33
26865;BME280;40618;51.166;10.322;2022-09-12T14:20:05;97382.78;;;20.19;54.11
26865;BME280;40618;51.166;10.322;2022-09-12T14:22:43;97379.59;;;20.27;54.24
26865;BME280;40618;51.166;10.322;2022-09-12T14:25:22;97375.06;;;20.29;54.03
26865;BME280;40618;51.166;10.322;2022-09-12T14:27:52;97378.66;;;20.28;54.10
26865;BME280;40618;51.166;10.322;2022-09-12T14:30:30;97377.25;;;20.35;53.88
26865;BME280;40618;51.166;10.322;2022-09-12T14:33:25;97363.38;;;20.33;53.76
26865;BME280;40618;51.166;10.322;2022-09-12T14:36:09;97374.63;;;20.35;53.77
26865;BME280;40618;51.166;10.322;2022-09-12T14:38:43;97361.94;;;20.29;53.59
26865;BME280;40618;51.166;10.322;2022-09-12T14:41:13;97361.09;;;20.28;53.87
26865;BME280;40618;51.166;10.322;2022-09-12T14:43:51;97360.13;;;20.29;53.84
26865;BME280;40618;51.166;10.322;2022-09-12T14:46:41;97354.22;;;20.39;53.73
26865;BME280;40618;51.166;10.322;2022-09-12T14:49:29;97351.75;;;20.49;53.54
26865;BME280;40618;51.166;10.322;2022-09-12T14:51:57;97347.34;;;20.49;53.37
26865;BME280;40618;51.166;10.322;2022-09-12T14:57:03;97344.38;;;20.54;53.08
26865;BME280;40618;51.166;10.322;2022-09-12T14:59:48;97351.72;;;20.61;53.29
26865;BME280;40618;51.166;10.322;2022-09-12T15:04:47;97336.16;;;20.58;52.66
26865;BME280;40618;51.166;10.322;2022-09-12T15:07:27;97345.22;;;20.54;52.46
26865;BME280;40618;51.166;10.322;2022-09-12T15:09:54;97341.03;;;20.52;52.62
26865;BME280;40618;51.166;10.322;2022-09-12T15:12:23;97337.31;;;20.54;52.60
26865;BME280;40618;51.166;10.322;2022-09-12T15:14:49;97328.06;;;20.61;52.44
26865;BME280;40618;51.166;10.322;2022-09-12T15:17:15;97324.56;;;20.74;52.61
26865;BME280;40618;51.166;10.322;2022-09-12T15:19:40;97324.59;;;20.85;52.30
26865;BME280;40618;51.166;10.322;2022-09-12T15:22:09;97331.44;;;20.88;51.84
26865;BME280;40618;51.166;10.322;2022-09-12T15:24:36;97324.25;;;20.90;52.09
26865;BME280;40618;51.166;10.322;2022-09-12T15:27:10;97317.47;;;20.99;51.64
26865;BME280;40618;51.166;10.322;2022-09-12T15:29:37;97316.03;;;21.06;51.69
26865;BME280;40618;51.166;10.322;2022-09-12T15:32:04;97313.28;;;21.07;51.57
26865;BME280;40618;51.166;10.322;2022-09-12T15:34:31;97311.53;;;21.08;51.25
26865;BME280;40618;51.166;10.322;2022-09-12T15:36:57;97320.38;;;21.07;51.23
26865;BME280;40618;51.166;10.322;2022-09-12T15:39:23;97317.22;;;21.02;51.08
26865;BME280;40618;51.166;10.322;2022-09-12T15:41:48;97318.28;;;20.99;51.09
26865;BME280;40618;51.166;10.322;2022-09-12T15:44:14;97315.78;;;20.98;51.16
26865;BME280;40618;51.166;10.322;2022-09-12T15:46:40;97318.78;;;20.93;51.22
26865;BME280;40618;51.166;10.322;2022-09-12T15:49:06;97316.97;;;20.93;51.08
26865;BME280;40618;51.166;10.322;2022-09-12T15:51:32;97318.16;;;20.89;51.05
26865;BME280;40618;51.166;10.322;2022-09-12T15:54:03;97314.81;;;20.87;50.95
26865;BME280;40618;51.166;10.322;2022-09-12T15:56:29;97309.63;;;20.86;51.15
26865;BME280;40618;51.166;10.322;2022-09-12T15:58:54;97320.16;;;20.86;51.09
26865;BME280;40618;51.166;10.322;2022-09-12T16:01:20;97314.56;;;20.90;50.75